createdAt,value
2019-05-16T00:00:08.294Z,1022.2
2019-05-16T00:01:09.174Z,1022.1
2019-05-16T00:02:08.198Z,1022.1
2019-05-16T00:03:07.986Z,1022.1
2019-05-16T00:04:08.657Z,1022.1
2019-05-16T00:05:08.359Z,1022
2019-05-16T00:06:08.496Z,1022
2019-05-16T00:07:08.019Z,1022.1
2019-05-16T00:08:11.814Z,1022
2019-05-16T00:09:07.963Z,1022
2019-05-16T00:10:08.338Z,1021.8
2019-05-16T00:11:08.545Z,1021.9
2019-05-16T00:12:08.703Z,1021.9
2019-05-16T00:13:08.476Z,1021.9
2019-05-16T00:14:08.313Z,1021.9
2019-05-16T00:15:08.957Z,1021.9
2019-05-16T00:16:07.941Z,1021.8
2019-05-16T00:17:08.309Z,1021.8
2019-05-16T00:18:08.685Z,1021.8
2019-05-16T00:19:08.992Z,1021.8
2019-05-16T00:20:09.178Z,1021.8
2019-05-16T00:21:08.682Z,1021.8
2019-05-16T00:22:08.671Z,1021.7
2019-05-16T00:23:07.889Z,1021.8
2019-05-16T00:24:08.195Z,1021.8
2019-05-16T00:25:08.609Z,1021.7
2019-05-16T00:26:07.806Z,1021.7
2019-05-16T00:27:08.277Z,1021.7
2019-05-16T00:28:08.910Z,1021.7
2019-05-16T00:29:07.973Z,1021.7
2019-05-16T00:30:08.810Z,1021.6
2019-05-16T00:31:08.571Z,1021.6
2019-05-16T00:32:08.540Z,1021.6
2019-05-16T00:33:08.247Z,1021.7
2019-05-16T00:34:09.538Z,1021.7
2019-05-16T00:35:09.117Z,1021.6
2019-05-16T00:36:09.105Z,1021.6
2019-05-16T00:37:08.612Z,1021.7
2019-05-16T00:38:08.739Z,1021.6
2019-05-16T00:39:08.440Z,1021.7
2019-05-16T00:40:08.279Z,1021.7
2019-05-16T00:41:08.537Z,1021.7
2019-05-16T00:42:08.751Z,1021.7
2019-05-16T00:43:08.253Z,1021.7
2019-05-16T00:44:08.484Z,1021.7
2019-05-16T00:45:09.088Z,1021.7
2019-05-16T00:46:08.386Z,1021.7
2019-05-16T00:47:08.626Z,1021.7
2019-05-16T00:48:08.935Z,1021.6
2019-05-16T00:49:09.295Z,1021.7
2019-05-16T00:50:08.800Z,1021.7
2019-05-16T00:51:08.338Z,1021.6
2019-05-16T00:52:08.375Z,1021.6
2019-05-16T00:53:09.089Z,1021.6
2019-05-16T00:54:08.446Z,1021.6
2019-05-16T00:55:08.665Z,1021.6
2019-05-16T00:56:08.514Z,1021.6
2019-05-16T00:57:08.722Z,1021.5
2019-05-16T00:58:08.870Z,1021.6
2019-05-16T00:59:08.650Z,1021.6
2019-05-16T01:00:08.684Z,1021.5
2019-05-16T01:01:08.765Z,1021.5
2019-05-16T01:02:09.043Z,1021.5
2019-05-16T01:03:08.805Z,1021.5
2019-05-16T01:04:08.796Z,1021.5
2019-05-16T01:05:08.900Z,1021.5
2019-05-16T01:06:16.451Z,1021.5
2019-05-16T01:07:08.890Z,1021.4
2019-05-16T01:08:08.955Z,1021.4
2019-05-16T01:09:08.978Z,1021.4
2019-05-16T01:10:09.329Z,1021.4
2019-05-16T01:11:09.022Z,1021.3
2019-05-16T01:12:09.011Z,1021.3
2019-05-16T01:13:09.090Z,1021.3
2019-05-16T01:14:09.079Z,1021.3
2019-05-16T01:15:09.100Z,1021.3
2019-05-16T01:16:09.120Z,1021.3
2019-05-16T01:17:09.162Z,1021.3
2019-05-16T01:18:09.218Z,1021.2
2019-05-16T01:19:09.191Z,1021.2
2019-05-16T01:20:09.210Z,1021.2
2019-05-16T01:21:09.248Z,1021.1
2019-05-16T01:22:09.274Z,1021.2
2019-05-16T01:23:09.324Z,1021.1
2019-05-16T01:24:09.295Z,1021.1
2019-05-16T01:25:09.757Z,1021.1
2019-05-16T01:26:09.347Z,1021.1
2019-05-16T01:27:09.385Z,1021.1
2019-05-16T01:28:09.402Z,1021.1
2019-05-16T01:29:11.706Z,1021.1
2019-05-16T01:30:09.447Z,1021.1
2019-05-16T01:31:09.412Z,1021
2019-05-16T01:32:09.436Z,1021.1
2019-05-16T01:33:09.674Z,1021.1
2019-05-16T01:34:09.473Z,1021.1
2019-05-16T01:35:09.455Z,1021
2019-05-16T01:36:09.485Z,1021
2019-05-16T01:37:09.487Z,1021
2019-05-16T01:38:09.472Z,1021.1
2019-05-16T01:39:09.508Z,1021
2019-05-16T01:40:09.504Z,1021
2019-05-16T01:41:09.516Z,1021
2019-05-16T01:42:09.528Z,1020.9
2019-05-16T01:43:09.531Z,1020.9
2019-05-16T01:44:09.557Z,1020.9
2019-05-16T01:45:09.541Z,1020.9
2019-05-16T01:46:09.559Z,1020.9
2019-05-16T01:47:09.559Z,1021
2019-05-16T01:48:09.645Z,1021
2019-05-16T01:49:09.634Z,1020.9
2019-05-16T01:50:09.584Z,1020.9
2019-05-16T01:51:09.610Z,1020.9
2019-05-16T01:52:09.621Z,1020.9
2019-05-16T01:53:09.598Z,1020.9
2019-05-16T01:54:09.644Z,1020.8
2019-05-16T01:55:09.647Z,1020.8
2019-05-16T01:56:09.615Z,1020.7
2019-05-16T01:57:09.649Z,1020.7
2019-05-16T01:58:09.707Z,1020.8
2019-05-16T01:59:09.748Z,1020.7
2019-05-16T02:00:09.778Z,1020.7
2019-05-16T02:01:12.867Z,1020.8
2019-05-16T02:02:09.844Z,1020.8
2019-05-16T02:03:09.916Z,1020.6
2019-05-16T02:04:12.155Z,1020.7
2019-05-16T02:05:10.005Z,1020.8
2019-05-16T02:06:10.071Z,1020.6
2019-05-16T02:07:10.070Z,1020.6
2019-05-16T02:08:10.174Z,1020.6
2019-05-16T02:09:11.418Z,1020.6
2019-05-16T02:10:10.272Z,1020.5
2019-05-16T02:11:10.325Z,1020.5
2019-05-16T02:12:11.371Z,1020.5
2019-05-16T02:13:10.352Z,1020.5
2019-05-16T02:14:10.465Z,1020.5
2019-05-16T02:15:10.478Z,1020.4
2019-05-16T02:16:10.559Z,1020.5
2019-05-16T02:17:11.178Z,1020.5
2019-05-16T02:18:10.634Z,1020.4
2019-05-16T02:19:10.698Z,1020.5
2019-05-16T02:20:10.727Z,1020.5
2019-05-16T02:21:10.754Z,1020.5
2019-05-16T02:22:10.775Z,1020.4
2019-05-16T02:23:10.866Z,1020.5
2019-05-16T02:24:10.888Z,1020.4
2019-05-16T02:25:10.843Z,1020.4
2019-05-16T02:26:10.918Z,1020.3
2019-05-16T02:27:10.966Z,1020.3
2019-05-16T02:28:11.036Z,1020.3
2019-05-16T02:29:13.621Z,1020.3
2019-05-16T02:30:12.334Z,1020.3
2019-05-16T02:31:11.864Z,1020.4
2019-05-16T02:32:11.709Z,1020.3
2019-05-16T02:33:11.659Z,1020.3
2019-05-16T02:34:11.995Z,1020.3
2019-05-16T02:35:12.092Z,1020.3
2019-05-16T02:36:11.319Z,1020.2
2019-05-16T02:37:23.344Z,1020.2
2019-05-16T02:38:11.582Z,1020.3
2019-05-16T02:39:11.571Z,1020.3
2019-05-16T02:40:12.182Z,1020.2
2019-05-16T02:41:11.551Z,1020.2
2019-05-16T02:42:12.199Z,1020.2
2019-05-16T02:43:12.423Z,1020.1
2019-05-16T02:44:12.181Z,1020.1
2019-05-16T02:45:11.660Z,1020.1
2019-05-16T02:46:12.169Z,1020.1
2019-05-16T02:47:11.757Z,1020.1
2019-05-16T02:48:11.772Z,1020
2019-05-16T02:49:11.955Z,1020
2019-05-16T02:50:12.652Z,1020
2019-05-16T02:51:11.948Z,1020
2019-05-16T02:52:11.950Z,1020
2019-05-16T02:53:12.744Z,1019.9
2019-05-16T02:54:12.047Z,1019.9
2019-05-16T02:55:12.273Z,1020
2019-05-16T02:56:12.481Z,1019.9
2019-05-16T02:57:12.058Z,1020
2019-05-16T02:58:12.103Z,1019.9
2019-05-16T02:59:12.209Z,1019.9
2019-05-16T03:00:12.705Z,1019.9
2019-05-16T03:01:12.182Z,1019.9
2019-05-16T03:02:12.230Z,1019.9
2019-05-16T03:03:12.336Z,1019.9
2019-05-16T03:04:12.332Z,1019.9
2019-05-16T03:05:12.812Z,1019.8
2019-05-16T03:06:12.355Z,1019.8
2019-05-16T03:07:30.207Z,1019.9
2019-05-16T03:08:14.898Z,1019.8
2019-05-16T03:09:12.535Z,1019.8
2019-05-16T03:10:12.514Z,1019.8
2019-05-16T03:11:12.544Z,1019.8
2019-05-16T03:12:12.569Z,1019.9
2019-05-16T03:13:12.600Z,1019.9
2019-05-16T03:14:12.653Z,1019.8
2019-05-16T03:15:12.741Z,1019.8
2019-05-16T03:16:12.681Z,1019.8
2019-05-16T03:17:12.774Z,1019.8
2019-05-16T03:18:12.750Z,1019.8
2019-05-16T03:19:12.816Z,1019.7
2019-05-16T03:20:12.812Z,1019.8
2019-05-16T03:21:12.830Z,1019.8
2019-05-16T03:22:13.191Z,1019.7
2019-05-16T03:23:12.896Z,1019.7
2019-05-16T03:24:12.935Z,1019.8
2019-05-16T03:25:12.906Z,1019.7
2019-05-16T03:26:12.969Z,1019.8
2019-05-16T03:27:12.963Z,1019.8
2019-05-16T03:28:13.027Z,1019.7
2019-05-16T03:29:13.014Z,1019.7
2019-05-16T03:30:16.068Z,1019.8
2019-05-16T03:31:14.711Z,1019.8
2019-05-16T03:32:14.221Z,1019.8
2019-05-16T03:33:16.764Z,1019.8
2019-05-16T03:34:15.798Z,1019.8
2019-05-16T03:35:15.113Z,1019.8
2019-05-16T03:36:15.057Z,1019.8
2019-05-16T03:37:14.484Z,1019.8
2019-05-16T03:38:13.104Z,1019.7
2019-05-16T03:39:13.099Z,1019.8
2019-05-16T03:40:13.120Z,1019.8
2019-05-16T03:41:13.113Z,1019.8
2019-05-16T03:42:13.160Z,1019.8
2019-05-16T03:43:13.130Z,1019.8
2019-05-16T03:44:13.141Z,1019.8
2019-05-16T03:45:13.142Z,1019.7
2019-05-16T03:46:13.189Z,1019.8
2019-05-16T03:47:13.204Z,1019.7
2019-05-16T03:48:13.209Z,1019.7
2019-05-16T03:49:13.193Z,1019.7
2019-05-16T03:50:13.194Z,1019.7
2019-05-16T03:51:13.167Z,1019.7
2019-05-16T03:52:13.234Z,1019.7
2019-05-16T03:53:13.209Z,1019.6
2019-05-16T03:54:15.478Z,1019.6
2019-05-16T03:55:13.317Z,1019.6
2019-05-16T03:56:13.397Z,1019.6
2019-05-16T03:57:13.451Z,1019.6
2019-05-16T03:58:13.454Z,1019.6
2019-05-16T03:59:13.541Z,1019.5
2019-05-16T04:00:16.073Z,1019.5
2019-05-16T04:01:13.648Z,1019.5
2019-05-16T04:02:13.751Z,1019.5
2019-05-16T04:03:13.775Z,1019.5
2019-05-16T04:04:13.839Z,1019.5
2019-05-16T04:05:13.856Z,1019.4
2019-05-16T04:06:13.889Z,1019.5
2019-05-16T04:07:13.962Z,1019.4
2019-05-16T04:08:19.169Z,1019.5
2019-05-16T04:09:15.004Z,1019.4
2019-05-16T04:10:13.968Z,1019.3
2019-05-16T04:11:14.006Z,1019.4
2019-05-16T04:12:14.082Z,1019.3
2019-05-16T04:13:14.090Z,1019.4
2019-05-16T04:14:14.089Z,1019.4
2019-05-16T04:15:14.128Z,1019.3
2019-05-16T04:16:14.127Z,1019.4
2019-05-16T04:17:14.188Z,1019.3
2019-05-16T04:18:14.234Z,1019.3
2019-05-16T04:19:14.232Z,1019.4
2019-05-16T04:20:14.307Z,1019.4
2019-05-16T04:21:17.398Z,1019.2
2019-05-16T04:22:14.427Z,1019.4
2019-05-16T04:23:14.447Z,1019.4
2019-05-16T04:24:14.463Z,1019.3
2019-05-16T04:25:14.491Z,1019.4
2019-05-16T04:26:14.531Z,1019.3
2019-05-16T04:27:14.567Z,1019.3
2019-05-16T04:28:14.640Z,1019.3
2019-05-16T04:29:14.700Z,1019.3
2019-05-16T04:30:14.706Z,1019.3
2019-05-16T04:31:14.746Z,1019.2
2019-05-16T04:32:20.003Z,1019.2
2019-05-16T04:33:14.782Z,1019.2
2019-05-16T04:34:14.774Z,1019.2
2019-05-16T04:35:14.827Z,1019.2
2019-05-16T04:36:14.863Z,1019.2
2019-05-16T04:37:14.916Z,1019.1
2019-05-16T04:38:30.137Z,1019.1
2019-05-16T04:39:15.007Z,1019.2
2019-05-16T04:40:15.034Z,1019.2
2019-05-16T04:41:15.081Z,1019.2
2019-05-16T04:42:15.087Z,1019.1
2019-05-16T04:43:15.133Z,1019.1
2019-05-16T04:44:15.161Z,1019.1
2019-05-16T04:45:15.229Z,1019.1
2019-05-16T04:46:15.203Z,1019.1
2019-05-16T04:47:15.245Z,1019.1
2019-05-16T04:48:15.313Z,1019.1
2019-05-16T04:49:15.296Z,1019.1
2019-05-16T04:50:15.314Z,1019.1
2019-05-16T04:51:15.525Z,1019.1
2019-05-16T04:52:15.385Z,1019.1
2019-05-16T04:53:15.429Z,1019.1
2019-05-16T04:54:15.410Z,1019.1
2019-05-16T04:55:15.447Z,1019.1
2019-05-16T04:56:15.445Z,1019.1
2019-05-16T04:57:15.494Z,1019.1
2019-05-16T04:58:15.535Z,1019.1
2019-05-16T04:59:16.776Z,1019.2
2019-05-16T05:00:15.621Z,1019.2
2019-05-16T05:01:15.652Z,1019.2
2019-05-16T05:02:15.677Z,1019.2
2019-05-16T05:03:15.643Z,1019.2
2019-05-16T05:04:15.826Z,1019.2
2019-05-16T05:05:15.728Z,1019.2
2019-05-16T05:06:15.759Z,1019.2
2019-05-16T05:07:15.796Z,1019.2
2019-05-16T05:08:15.789Z,1019.2
2019-05-16T05:09:15.898Z,1019.2
2019-05-16T05:10:15.876Z,1019.2
2019-05-16T05:11:15.912Z,1019.2
2019-05-16T05:12:15.894Z,1019.2
2019-05-16T05:13:15.926Z,1019.2
2019-05-16T05:14:15.970Z,1019.3
2019-05-16T05:15:15.950Z,1019.2
2019-05-16T05:16:15.970Z,1019.2
2019-05-16T05:17:16.035Z,1019.1
2019-05-16T05:18:16.065Z,1019.2
2019-05-16T05:19:16.110Z,1019.2
2019-05-16T05:20:16.116Z,1019.1
2019-05-16T05:21:16.069Z,1019.2
2019-05-16T05:22:19.862Z,1019.1
2019-05-16T05:23:16.109Z,1019.1
2019-05-16T05:24:16.190Z,1019.2
2019-05-16T05:25:16.169Z,1019.1
2019-05-16T05:26:16.169Z,1019.2
2019-05-16T05:27:16.175Z,1019.1
2019-05-16T05:28:16.148Z,1019.1
2019-05-16T05:29:16.204Z,1019
2019-05-16T05:30:16.184Z,1019.2
2019-05-16T05:31:16.244Z,1019.1
2019-05-16T05:32:16.215Z,1019
2019-05-16T05:33:16.220Z,1019
2019-05-16T05:34:16.362Z,1019
2019-05-16T05:35:16.258Z,1018.9
2019-05-16T05:36:16.213Z,1018.9
2019-05-16T05:37:16.244Z,1018.9
2019-05-16T05:38:16.268Z,1018.8
2019-05-16T05:39:23.487Z,1018.8
2019-05-16T05:40:16.351Z,1018.8
2019-05-16T05:41:16.260Z,1018.7
2019-05-16T05:42:16.305Z,1018.9
2019-05-16T05:43:16.270Z,1018.9
2019-05-16T05:44:16.267Z,1018.8
2019-05-16T05:45:16.310Z,1018.9
2019-05-16T05:46:16.349Z,1018.9
2019-05-16T05:47:16.362Z,1018.9
2019-05-16T05:48:16.372Z,1018.9
2019-05-16T05:49:16.394Z,1018.8
2019-05-16T05:50:16.513Z,1018.9
2019-05-16T05:51:16.524Z,1018.9
2019-05-16T05:52:16.549Z,1019
2019-05-16T05:53:16.610Z,1018.9
2019-05-16T05:54:16.700Z,1018.9
2019-05-16T05:55:16.776Z,1018.9
2019-05-16T05:56:16.791Z,1019
2019-05-16T05:57:16.844Z,1018.9
2019-05-16T05:58:16.925Z,1018.8
2019-05-16T05:59:16.944Z,1018.9
2019-05-16T06:00:17.011Z,1018.9
2019-05-16T06:01:17.016Z,1018.9
2019-05-16T06:02:17.079Z,1019
2019-05-16T06:03:17.082Z,1019
2019-05-16T06:04:17.135Z,1018.9
2019-05-16T06:05:17.714Z,1019
2019-05-16T06:06:17.224Z,1018.9
2019-05-16T06:07:17.309Z,1019
2019-05-16T06:08:17.336Z,1019
2019-05-16T06:09:26.048Z,1019
2019-05-16T06:10:19.751Z,1019
2019-05-16T06:11:17.610Z,1019
2019-05-16T06:12:17.647Z,1019
2019-05-16T06:13:20.189Z,1019
2019-05-16T06:14:17.569Z,1019
2019-05-16T06:15:20.234Z,1019
2019-05-16T06:16:20.127Z,1018.9
2019-05-16T06:17:19.909Z,1019
2019-05-16T06:18:19.792Z,1018.9
2019-05-16T06:19:17.810Z,1019
2019-05-16T06:20:20.101Z,1019
2019-05-16T06:21:20.061Z,1018.9
2019-05-16T06:22:20.395Z,1019
2019-05-16T06:23:20.244Z,1018.9
2019-05-16T06:24:20.009Z,1019
2019-05-16T06:25:22.145Z,1018.9
2019-05-16T06:26:20.341Z,1018.9
2019-05-16T06:27:20.658Z,1018.9
2019-05-16T06:28:20.507Z,1018.9
2019-05-16T06:29:20.269Z,1018.9
2019-05-16T06:30:21.267Z,1019
2019-05-16T06:31:21.754Z,1018.9
2019-05-16T06:32:19.776Z,1018.9
2019-05-16T06:33:19.911Z,1019
2019-05-16T06:34:20.730Z,1019
2019-05-16T06:35:20.248Z,1019
2019-05-16T06:36:20.355Z,1019
2019-05-16T06:37:20.470Z,1019.1
2019-05-16T06:38:20.902Z,1019
2019-05-16T06:39:19.872Z,1019
2019-05-16T06:40:20.246Z,1018.9
2019-05-16T06:41:19.863Z,1018.9
2019-05-16T06:42:20.574Z,1018.9
2019-05-16T06:43:20.411Z,1018.9
2019-05-16T06:44:20.236Z,1018.9
2019-05-16T06:45:20.453Z,1018.8
2019-05-16T06:46:20.074Z,1018.9
2019-05-16T06:47:20.486Z,1018.9
2019-05-16T06:48:21.067Z,1018.8
2019-05-16T06:49:19.668Z,1018.8
2019-05-16T06:50:20.784Z,1018.7
2019-05-16T06:51:19.991Z,1018.7
2019-05-16T06:52:19.686Z,1018.7
2019-05-16T06:53:20.881Z,1018.7
2019-05-16T06:54:20.708Z,1018.7
2019-05-16T06:55:20.436Z,1018.7
2019-05-16T06:56:19.959Z,1018.7
2019-05-16T06:57:20.580Z,1018.7
2019-05-16T06:58:22.353Z,1018.7
2019-05-16T06:59:20.249Z,1018.7
2019-05-16T07:00:20.905Z,1018.7
2019-05-16T07:01:20.801Z,1018.8
2019-05-16T07:02:27.498Z,1018.7
2019-05-16T07:03:20.363Z,1018.8
2019-05-16T07:04:20.021Z,1018.7
2019-05-16T07:05:20.760Z,1018.6
2019-05-16T07:06:38.011Z,1018.6
2019-05-16T07:07:20.455Z,1018.7
2019-05-16T07:08:20.384Z,1018.7
2019-05-16T07:09:20.605Z,1018.7
2019-05-16T07:10:20.317Z,1018.8
2019-05-16T07:11:20.101Z,1018.7
2019-05-16T07:12:20.228Z,1018.7
2019-05-16T07:13:19.735Z,1018.7
2019-05-16T07:14:22.720Z,1018.8
2019-05-16T07:15:20.599Z,1018.7
2019-05-16T07:16:20.554Z,1018.7
2019-05-16T07:17:20.162Z,1018.7
2019-05-16T07:18:20.724Z,1018.6
2019-05-16T07:19:20.729Z,1018.7
2019-05-16T07:20:20.929Z,1018.7
2019-05-16T07:21:20.133Z,1018.7
2019-05-16T07:22:20.460Z,1018.8
2019-05-16T07:23:20.888Z,1018.8
2019-05-16T07:24:19.902Z,1018.7
2019-05-16T07:25:20.762Z,1018.7
2019-05-16T07:26:20.479Z,1018.8
2019-05-16T07:27:21.769Z,1018.8
2019-05-16T07:28:20.793Z,1018.7
2019-05-16T07:29:20.199Z,1018.6
2019-05-16T07:30:19.985Z,1018.7
2019-05-16T07:31:22.259Z,1018.7
2019-05-16T07:32:19.897Z,1018.6
2019-05-16T07:33:20.997Z,1018.6
2019-05-16T07:34:20.593Z,1018.6
2019-05-16T07:35:20.405Z,1018.5
2019-05-16T07:36:20.829Z,1018.6
2019-05-16T07:37:20.149Z,1018.6
2019-05-16T07:38:20.425Z,1018.5
2019-05-16T07:39:19.977Z,1018.6
2019-05-16T07:40:26.398Z,1018.6
2019-05-16T07:41:20.499Z,1018.6
2019-05-16T07:42:20.115Z,1018.6
2019-05-16T07:43:20.379Z,1018.7
2019-05-16T07:44:20.809Z,1018.6
2019-05-16T07:45:20.466Z,1018.6
2019-05-16T07:46:20.769Z,1018.7
2019-05-16T07:47:20.406Z,1018.6
2019-05-16T07:48:21.342Z,1018.5
2019-05-16T07:49:20.283Z,1018.6
2019-05-16T07:50:20.524Z,1018.6
2019-05-16T07:51:20.582Z,1018.5
2019-05-16T07:52:22.586Z,1018.5
2019-05-16T07:53:21.344Z,1018.6
2019-05-16T07:54:21.303Z,1018.6
2019-05-16T07:55:21.003Z,1018.6
2019-05-16T07:56:20.699Z,1018.6
2019-05-16T07:57:22.882Z,1018.5
2019-05-16T07:58:22.311Z,1018.6
2019-05-16T07:59:20.680Z,1018.7
2019-05-16T08:00:21.762Z,1018.6
2019-05-16T08:01:20.804Z,1018.5
2019-05-16T08:02:21.175Z,1018.5
2019-05-16T08:03:20.867Z,1018.5
2019-05-16T08:04:20.910Z,1018.5
2019-05-16T08:05:21.427Z,1018.5
2019-05-16T08:06:21.007Z,1018.5
2019-05-16T08:07:20.987Z,1018.5
2019-05-16T08:08:23.977Z,1018.4
2019-05-16T08:09:21.303Z,1018.5
2019-05-16T08:10:36.306Z,1018.4
2019-05-16T08:11:23.575Z,1018.5
2019-05-16T08:12:25.957Z,1018.5
2019-05-16T08:13:21.389Z,1018.4
2019-05-16T08:14:21.529Z,1018.4
2019-05-16T08:15:21.605Z,1018.4
2019-05-16T08:16:21.430Z,1018.4
2019-05-16T08:17:21.858Z,1018.4
2019-05-16T08:18:21.743Z,1018.4
2019-05-16T08:19:25.113Z,1018.4
2019-05-16T08:20:22.077Z,1018.3
2019-05-16T08:21:21.625Z,1018.3
2019-05-16T08:22:22.384Z,1018.3
2019-05-16T08:23:22.507Z,1018.3
2019-05-16T08:24:21.725Z,1018.4
2019-05-16T08:25:21.778Z,1018.3
2019-05-16T08:26:22.282Z,1018.4
2019-05-16T08:27:21.898Z,1018.4
2019-05-16T08:28:22.107Z,1018.4
2019-05-16T08:29:22.150Z,1018.3
2019-05-16T08:30:22.005Z,1018.4
2019-05-16T08:31:22.130Z,1018.4
2019-05-16T08:32:22.895Z,1018.4
2019-05-16T08:33:22.316Z,1018.3
2019-05-16T08:34:22.086Z,1018.3
2019-05-16T08:35:22.098Z,1018.3
2019-05-16T08:36:22.142Z,1018.3
2019-05-16T08:37:36.735Z,1018.3
2019-05-16T08:38:22.154Z,1018.3
2019-05-16T08:39:22.118Z,1018.2
2019-05-16T08:40:22.117Z,1018.3
2019-05-16T08:41:22.779Z,1018.3
2019-05-16T08:42:22.158Z,1018.3
2019-05-16T08:43:22.693Z,1018.2
2019-05-16T08:44:22.225Z,1018.1
2019-05-16T08:45:22.423Z,1018.2
2019-05-16T08:46:22.318Z,1018.1
2019-05-16T08:47:22.318Z,1018.1
2019-05-16T08:48:23.641Z,1018.1
2019-05-16T08:49:22.434Z,1018.1
2019-05-16T08:50:22.370Z,1018.1
2019-05-16T08:51:22.546Z,1018
2019-05-16T08:52:22.662Z,1018.1
2019-05-16T08:53:22.459Z,1018.1
2019-05-16T08:54:22.492Z,1018.1
2019-05-16T08:55:22.852Z,1018.1
2019-05-16T08:56:22.697Z,1018.1
2019-05-16T08:57:27.687Z,1018
2019-05-16T08:58:23.066Z,1018.1
2019-05-16T08:59:22.572Z,1018.1
2019-05-16T09:00:22.609Z,1018
2019-05-16T09:01:22.648Z,1018.1
2019-05-16T09:03:22.796Z,1018.2
2019-05-16T09:04:24.375Z,1018.1
2019-05-16T09:05:23.010Z,1018.2
2019-05-16T09:06:23.192Z,1018.2
2019-05-16T09:07:22.955Z,1018.2
2019-05-16T09:08:22.735Z,1018.2
2019-05-16T09:09:36.294Z,1018.2
2019-05-16T09:10:34.042Z,1018.1
2019-05-16T09:11:34.872Z,1018.2
2019-05-16T09:12:22.745Z,1018.3
2019-05-16T09:13:22.747Z,1018.2
2019-05-16T09:14:22.788Z,1018.2
2019-05-16T09:15:22.786Z,1018.1
2019-05-16T09:16:38.539Z,1018.2
2019-05-16T09:17:22.788Z,1018.1
2019-05-16T09:18:22.791Z,1018.2
2019-05-16T09:19:22.814Z,1018.1
2019-05-16T09:20:22.797Z,1018.1
2019-05-16T09:21:22.813Z,1018
2019-05-16T09:22:22.834Z,1018.1
2019-05-16T09:23:22.787Z,1018
2019-05-16T09:24:22.807Z,1018
2019-05-16T09:25:22.811Z,1018
2019-05-16T09:26:22.866Z,1018
2019-05-16T09:27:22.914Z,1018
2019-05-16T09:28:22.965Z,1018
2019-05-16T09:29:23.022Z,1017.9
2019-05-16T09:30:23.031Z,1017.9
2019-05-16T09:31:23.066Z,1017.9
2019-05-16T09:32:23.151Z,1017.8
2019-05-16T09:33:26.739Z,1017.9
2019-05-16T09:34:23.224Z,1017.9
2019-05-16T09:35:23.218Z,1017.9
2019-05-16T09:36:23.288Z,1018
2019-05-16T09:37:23.356Z,1017.9
2019-05-16T09:38:23.822Z,1018
2019-05-16T09:39:23.402Z,1017.9
2019-05-16T09:40:23.434Z,1017.9
2019-05-16T09:41:23.433Z,1018
2019-05-16T09:42:23.488Z,1018
2019-05-16T09:43:23.513Z,1018
2019-05-16T09:44:23.516Z,1018.1
2019-05-16T09:45:23.540Z,1018
2019-05-16T09:46:23.630Z,1018.1
2019-05-16T09:47:23.738Z,1017.9
2019-05-16T09:48:23.661Z,1017.9
2019-05-16T09:49:24.818Z,1017.9
2019-05-16T09:50:23.813Z,1017.9
2019-05-16T09:51:23.824Z,1017.9
2019-05-16T09:52:23.916Z,1017.9
2019-05-16T09:53:23.925Z,1017.9
2019-05-16T09:54:24.016Z,1017.9
2019-05-16T09:55:24.051Z,1017.8
2019-05-16T09:56:24.104Z,1017.9
2019-05-16T09:57:24.180Z,1017.8
2019-05-16T09:58:24.181Z,1017.7
2019-05-16T09:59:26.269Z,1017.7
2019-05-16T10:00:26.688Z,1017.7
2019-05-16T10:01:24.282Z,1017.7
2019-05-16T10:02:27.176Z,1017.7
2019-05-16T10:03:26.860Z,1017.8
2019-05-16T10:04:26.643Z,1017.7
2019-05-16T10:05:26.599Z,1017.8
2019-05-16T10:06:24.530Z,1017.7
2019-05-16T10:07:27.975Z,1017.7
2019-05-16T10:08:26.696Z,1017.7
2019-05-16T10:09:38.372Z,1017.8
2019-05-16T10:10:26.243Z,1017.8
2019-05-16T10:11:30.174Z,1017.8
2019-05-16T10:12:26.276Z,1017.9
2019-05-16T10:13:27.261Z,1017.9
2019-05-16T10:14:26.825Z,1017.8
2019-05-16T10:15:26.937Z,1017.9
2019-05-16T10:16:27.345Z,1017.8
2019-05-16T10:17:27.180Z,1017.8
2019-05-16T10:18:27.469Z,1017.8
2019-05-16T10:19:27.352Z,1017.7
2019-05-16T10:20:27.176Z,1017.7
2019-05-16T10:21:27.111Z,1017.6
2019-05-16T10:22:27.212Z,1017.6
2019-05-16T10:23:25.225Z,1017.6
2019-05-16T10:24:26.816Z,1017.6
2019-05-16T10:25:27.604Z,1017.5
2019-05-16T10:26:27.640Z,1017.6
2019-05-16T10:27:26.474Z,1017.6
2019-05-16T10:28:27.520Z,1017.6
2019-05-16T10:29:27.309Z,1017.5
2019-05-16T10:30:26.893Z,1017.6
2019-05-16T10:31:38.437Z,1017.5
2019-05-16T10:32:27.325Z,1017.6
2019-05-16T10:33:27.439Z,1017.5
2019-05-16T10:34:26.559Z,1017.5
2019-05-16T10:35:28.987Z,1017.4
2019-05-16T10:36:27.897Z,1017.4
2019-05-16T10:37:26.830Z,1017.3
2019-05-16T10:38:28.340Z,1017.4
2019-05-16T10:39:26.735Z,1017.4
2019-05-16T10:40:27.369Z,1017.3
2019-05-16T10:41:25.723Z,1017.4
2019-05-16T10:42:28.859Z,1017.4
2019-05-16T10:43:26.430Z,1017.4
2019-05-16T10:44:28.022Z,1017.4
2019-05-16T10:45:27.269Z,1017.4
2019-05-16T10:46:26.894Z,1017.4
2019-05-16T10:47:28.675Z,1017.4
2019-05-16T10:48:26.936Z,1017.4
2019-05-16T10:49:36.650Z,1017.5
2019-05-16T10:50:27.564Z,1017.5
2019-05-16T10:51:26.888Z,1017.4
2019-05-16T10:52:26.867Z,1017.4
2019-05-16T10:53:52.134Z,1017.5
2019-05-16T10:54:27.524Z,1017.5
2019-05-16T10:55:27.727Z,1017.5
2019-05-16T10:56:25.997Z,1017.4
2019-05-16T10:57:29.116Z,1017.4
2019-05-16T10:58:36.290Z,1017.4
2019-05-16T10:59:53.976Z,1017.4
2019-05-16T11:00:46.769Z,1017.3
2019-05-16T11:01:28.409Z,1017.4
2019-05-16T11:02:27.506Z,1017.3
2019-05-16T11:03:27.568Z,1017.3
2019-05-16T11:04:33.590Z,1017.3
2019-05-16T11:05:31.013Z,1017.4
2019-05-16T11:06:29.107Z,1017.4
2019-05-16T11:07:29.245Z,1017.3
2019-05-16T11:08:26.177Z,1017.3
2019-05-16T11:09:26.151Z,1017.4
2019-05-16T11:10:26.777Z,1017.4
2019-05-16T11:11:27.262Z,1017.3
2019-05-16T11:12:44.868Z,1017.4
2019-05-16T11:13:27.937Z,1017.4
2019-05-16T11:14:28.073Z,1017.4
2019-05-16T11:15:27.743Z,1017.5
2019-05-16T11:16:27.396Z,1017.4
2019-05-16T11:17:27.797Z,1017.5
2019-05-16T11:18:27.108Z,1017.4
2019-05-16T11:19:28.163Z,1017.5
2019-05-16T11:20:26.907Z,1017.4
2019-05-16T11:21:26.863Z,1017.5
2019-05-16T11:22:29.271Z,1017.5
2019-05-16T11:23:28.125Z,1017.4
2019-05-16T11:24:28.745Z,1017.5
2019-05-16T11:25:31.708Z,1017.5
2019-05-16T11:26:27.517Z,1017.4
2019-05-16T11:27:26.346Z,1017.5
2019-05-16T11:28:26.435Z,1017.5
2019-05-16T11:29:26.358Z,1017.5
2019-05-16T11:30:27.962Z,1017.5
2019-05-16T11:31:26.760Z,1017.5
2019-05-16T11:32:27.042Z,1017.5
2019-05-16T11:33:28.077Z,1017.6
2019-05-16T11:34:26.816Z,1017.5
2019-05-16T11:35:27.322Z,1017.4
2019-05-16T11:36:26.950Z,1017.5
2019-05-16T11:37:27.882Z,1017.4
2019-05-16T11:38:26.776Z,1017.4
2019-05-16T11:39:26.829Z,1017.5
2019-05-16T11:40:28.530Z,1017.5
2019-05-16T11:41:27.443Z,1017.5
2019-05-16T11:42:27.949Z,1017.5
2019-05-16T11:43:27.814Z,1017.5
2019-05-16T11:44:28.489Z,1017.4
2019-05-16T11:45:27.285Z,1017.4
2019-05-16T11:46:28.033Z,1017.4
2019-05-16T11:47:27.327Z,1017.4
2019-05-16T11:48:29.174Z,1017.4
2019-05-16T11:49:29.472Z,1017.5
2019-05-16T11:50:28.014Z,1017.4
2019-05-16T11:51:27.432Z,1017.4
2019-05-16T11:52:27.364Z,1017.4
2019-05-16T11:53:28.166Z,1017.4
2019-05-16T11:54:27.457Z,1017.4
2019-05-16T11:55:33.239Z,1017.4
2019-05-16T11:56:27.625Z,1017.3
2019-05-16T11:57:27.569Z,1017.4
2019-05-16T11:58:27.534Z,1017.4
2019-05-16T11:59:27.587Z,1017.4
2019-05-16T12:00:30.404Z,1017.4
2019-05-16T12:01:27.792Z,1017.5
2019-05-16T12:02:28.096Z,1017.4
2019-05-16T12:03:28.286Z,1017.4
2019-05-16T12:04:28.133Z,1017.4
2019-05-16T12:05:27.845Z,1017.4
2019-05-16T12:06:27.868Z,1017.4
2019-05-16T12:07:33.213Z,1017.3
2019-05-16T12:08:27.963Z,1017.4
2019-05-16T12:09:33.153Z,1017.3
2019-05-16T12:10:28.074Z,1017.4
2019-05-16T12:11:28.100Z,1017.4
2019-05-16T12:12:28.200Z,1017.3
2019-05-16T12:13:32.557Z,1017.3
2019-05-16T12:14:28.232Z,1017.4
2019-05-16T12:15:29.296Z,1017.4
2019-05-16T12:16:28.261Z,1017.4
2019-05-16T12:17:28.340Z,1017.4
2019-05-16T12:18:28.318Z,1017.4
2019-05-16T12:19:33.645Z,1017.4
2019-05-16T12:20:28.400Z,1017.4
2019-05-16T12:21:28.424Z,1017.3
2019-05-16T12:22:28.497Z,1017.3
2019-05-16T12:23:28.510Z,1017.3
2019-05-16T12:24:37.009Z,1017.4
2019-05-16T12:25:28.577Z,1017.4
2019-05-16T12:26:28.638Z,1017.3
2019-05-16T12:27:32.151Z,1017.3
2019-05-16T12:28:28.660Z,1017.2
2019-05-16T12:29:30.948Z,1017.3
2019-05-16T12:30:28.734Z,1017.2
2019-05-16T12:31:32.311Z,1017.2
2019-05-16T12:32:28.826Z,1017.2
2019-05-16T12:33:28.872Z,1017.3